Time;durP1;ratioP1;P1;durP2;ratioP2;P2;SDS_P1;SDS_P2;PMS_P1;PMS_P2;Temp;Humidity;BMP_temperature;BMP_pressure;BME280_temperature;BME280_humidity;BME280_pressure;Samples;Min_cycle;Max_cycle;Signal;HPM_P1;HPM_P2
2023/11/12 00:01:43;;;;;;;1.63;1.40;;;10.40;84.20;;;;;;5063500;28;20642;-49
2023/11/12 00:04:12;;;;;;;2.60;1.50;;;10.40;84.20;;;;;;5063420;28;20462;-48
2023/11/12 00:06:41;;;;;;;2.30;1.73;;;10.40;84.30;;;;;;5068658;28;20820;-46
2023/11/12 00:09:10;;;;;;;2.37;1.73;;;10.40;84.20;;;;;;5062158;28;21023;-48
2023/11/12 00:11:42;;;;;;;2.43;1.73;;;10.40;84.20;;;;;;5066857;28;20441;-47
2023/11/12 00:14:10;;;;;;;2.50;1.90;;;10.40;84.00;;;;;;5068301;28;20474;-46
2023/11/12 00:16:39;;;;;;;3.97;2.17;;;10.40;84.10;;;;;;5063672;28;20467;-49
2023/11/12 00:19:07;;;;;;;2.23;1.97;;;10.40;84.10;;;;;;5063672;28;20576;-47
2023/11/12 00:21:36;;;;;;;2.33;1.70;;;10.40;84.20;;;;;;5063937;28;20430;-50
2023/11/12 00:24:05;;;;;;;3.63;3.00;;;10.40;84.00;;;;;;5062234;28;21018;-48
2023/11/12 00:26:33;;;;;;;2.80;2.20;;;10.40;83.70;;;;;;5067518;28;20486;-47
2023/11/12 00:29:04;;;;;;;3.00;2.07;;;10.40;83.80;;;;;;5066315;28;20884;-48
2023/11/12 00:31:33;;;;;;;2.10;1.90;;;10.40;83.80;;;;;;5062959;28;20456;-47
2023/11/12 00:34:02;;;;;;;1.70;1.40;;;10.40;84.00;;;;;;5068187;28;20552;-46
2023/11/12 00:36:30;;;;;;;4.13;2.50;;;10.30;84.10;;;;;;5061584;28;20463;-49
2023/11/12 00:39:00;;;;;;;2.23;1.90;;;10.40;83.90;;;;;;5064508;28;20489;-47
2023/11/12 00:41:28;;;;;;;3.40;2.83;;;10.40;83.80;;;;;;5067578;28;20804;-46
2023/11/12 00:43:57;;;;;;;2.80;1.53;;;10.40;83.80;;;;;;5063817;28;21006;-47
2023/11/12 00:46:26;;;;;;;2.13;1.93;;;10.30;84.00;;;;;;5066365;28;20481;-51
2023/11/12 00:48:56;;;;;;;4.33;2.83;;;10.40;83.80;;;;;;5064570;28;20483;-47
2023/11/12 00:51:24;;;;;;;4.63;2.60;;;10.30;83.60;;;;;;5066170;28;20446;-49
2023/11/12 00:53:52;;;;;;;4.73;1.77;;;10.30;83.60;;;;;;5064523;28;20470;-48
2023/11/12 00:56:21;;;;;;;4.40;2.50;;;10.30;83.80;;;;;;5062017;28;20473;-49
2023/11/12 00:58:50;;;;;;;2.63;1.80;;;10.30;83.70;;;;;;5062503;28;21074;-49
2023/11/12 01:01:18;;;;;;;3.80;2.60;;;10.30;83.70;;;;;;5060811;28;20808;-47
2023/11/12 01:03:46;;;;;;;2.20;1.63;;;10.30;83.60;;;;;;5061974;28;20485;-45
2023/11/12 01:06:15;;;;;;;3.37;2.33;;;10.30;83.70;;;;;;5066286;28;21068;-47
2023/11/12 01:08:43;;;;;;;3.07;2.00;;;10.30;83.70;;;;;;5063301;28;20501;-49
2023/11/12 01:11:11;;;;;;;3.73;2.20;;;10.30;83.90;;;;;;5062482;28;20443;-47
2023/11/12 01:13:41;;;;;;;2.40;1.60;;;10.30;83.60;;;;;;5062392;28;20493;-48
2023/11/12 01:16:09;;;;;;;2.60;2.40;;;10.30;83.60;;;;;;5063540;28;20547;-47
2023/11/12 01:18:40;;;;;;;2.87;1.80;;;10.30;83.70;;;;;;5061141;28;20471;-49
2023/11/12 01:21:09;;;;;;;2.20;1.67;;;10.30;83.70;;;;;;5064188;28;20457;-47
2023/11/12 01:23:38;;;;;;;3.07;1.83;;;10.30;83.70;;;;;;5058161;28;20488;-49
2023/11/12 01:26:06;;;;;;;3.53;2.60;;;10.30;83.60;;;;;;5060023;28;20476;-46
2023/11/12 01:28:34;;;;;;;3.33;2.97;;;10.30;83.70;;;;;;5062685;28;20462;-49
2023/11/12 01:31:04;;;;;;;3.93;1.93;;;10.30;83.60;;;;;;5064193;28;20426;-46
2023/11/12 01:33:32;;;;;;;3.30;2.60;;;10.30;83.60;;;;;;5077382;28;20466;-49
2023/11/12 01:36:00;;;;;;;2.27;1.80;;;10.30;84.90;;;;;;5063881;28;20518;-46
2023/11/12 01:38:30;;;;;;;3.03;2.40;;;10.30;83.60;;;;;;5063244;28;20465;-50
2023/11/12 01:41:02;;;;;;;2.70;1.60;;;10.30;83.70;;;;;;5062744;28;20534;-48
2023/11/12 01:43:31;;;;;;;2.70;2.10;;;10.30;83.60;;;;;;5064479;28;20477;-48
2023/11/12 01:46:04;;;;;;;3.23;2.43;;;10.30;83.60;;;;;;5057571;28;20533;-47
2023/11/12 01:48:35;;;;;;;3.60;2.87;;;10.20;83.60;;;;;;5060058;28;20561;-48
2023/11/12 01:51:04;;;;;;;3.23;2.73;;;10.30;83.60;;;;;;5063921;28;20449;-48
2023/11/12 01:53:36;;;;;;;3.83;2.33;;;10.20;83.60;;;;;;5064271;28;20554;-47
2023/11/12 01:56:08;;;;;;;3.10;2.10;;;10.20;83.60;;;;;;5061440;28;20532;-45
2023/11/12 01:58:37;;;;;;;3.70;2.57;;;10.20;83.60;;;;;;5061981;28;20529;-46
2023/11/12 02:01:05;;;;;;;2.60;2.40;;;10.20;83.60;;;;;;5064944;28;20681;-49
2023/11/12 02:03:36;;;;;;;3.93;2.50;;;10.20;83.60;;;;;;5057487;28;21344;-45
2023/11/12 02:06:06;;;;;;;2.70;2.00;;;10.20;83.60;;;;;;5066371;28;20506;-46
2023/11/12 02:08:36;;;;;;;3.10;2.20;;;10.20;83.60;;;;;;5062166;28;20478;-46
2023/11/12 02:11:07;;;;;;;2.60;2.40;;;10.20;83.60;;;;;;5057645;28;20544;-46
2023/11/12 02:13:36;;;;;;;3.90;2.63;;;10.20;83.60;;;;;;5062254;28;20462;-49
2023/11/12 02:16:05;;;;;;;5.80;3.17;;;10.20;83.60;;;;;;5057754;28;20481;-50
2023/11/12 02:18:35;;;;;;;3.60;1.90;;;10.20;83.60;;;;;;5060179;28;20553;-45
2023/11/12 02:21:03;;;;;;;2.40;2.20;;;10.20;83.60;;;;;;5062576;28;20438;-47
2023/11/12 02:23:36;;;;;;;4.03;2.33;;;10.20;83.60;;;;;;5065214;28;20483;-45
2023/11/12 02:26:04;;;;;;;2.33;1.90;;;10.20;83.60;;;;;;5059840;28;20473;-45
2023/11/12 02:28:32;;;;;;;3.40;2.20;;;10.20;83.60;;;;;;5063773;28;20824;-47
2023/11/12 02:31:00;;;;;;;3.30;2.20;;;10.20;83.60;;;;;;5061589;28;20805;-47
2023/11/12 02:33:29;;;;;;;3.20;1.70;;;10.20;83.60;;;;;;5058811;28;20473;-46
2023/11/12 02:35:57;;;;;;;3.93;2.30;;;10.20;83.60;;;;;;5065339;28;20514;-48
2023/11/12 02:38:25;;;;;;;2.53;2.03;;;10.20;83.60;;;;;;5063907;28;20673;-47
2023/11/12 02:40:56;;;;;;;4.70;2.60;;;10.20;83.60;;;;;;5057884;28;20449;-48
2023/11/12 02:43:25;;;;;;;2.70;1.70;;;10.20;83.60;;;;;;5068224;28;20486;-47
2023/11/12 02:45:53;;;;;;;4.57;2.73;;;10.10;83.50;;;;;;5065805;28;20507;-49
2023/11/12 02:48:21;;;;;;;4.10;2.13;;;10.10;83.50;;;;;;5064782;28;20482;-49
2023/11/12 02:50:50;;;;;;;3.20;2.20;;;10.10;83.50;;;;;;5063682;28;20454;-49
2023/11/12 02:53:18;;;;;;;3.43;2.43;;;10.10;83.50;;;;;;5064641;28;20466;-47
2023/11/12 02:55:46;;;;;;;3.00;2.27;;;10.10;83.50;;;;;;5067717;28;20525;-46
2023/11/12 02:58:16;;;;;;;2.80;2.30;;;10.10;83.50;;;;;;5064673;28;20519;-47
2023/11/12 03:00:44;;;;;;;2.60;1.97;;;10.10;83.50;;;;;;5063036;28;20445;-49
2023/11/12 03:03:13;;;;;;;2.57;1.80;;;10.10;83.50;;;;;;5066009;28;20550;-49
2023/11/12 03:05:41;;;;;;;2.90;1.77;;;10.10;83.50;;;;;;5065023;28;20426;-47
2023/11/12 03:08:09;;;;;;;4.60;1.97;;;10.10;83.50;;;;;;5065361;28;20485;-49
2023/11/12 03:10:41;;;;;;;3.43;2.17;;;10.10;83.50;;;;;;5064561;28;20458;-49
2023/11/12 03:13:09;;;;;;;4.27;2.30;;;10.10;83.50;;;;;;5065802;28;20473;-46
2023/11/12 03:15:39;;;;;;;2.87;1.90;;;10.10;83.50;;;;;;5063873;28;20441;-47
2023/11/12 03:18:07;;;;;;;2.43;1.97;;;10.10;83.50;;;;;;5060098;28;20463;-51
2023/11/12 03:20:35;;;;;;;3.23;1.93;;;10.10;83.50;;;;;;5064245;28;20816;-47
2023/11/12 03:23:04;;;;;;;3.37;1.80;;;10.10;83.50;;;;;;5062106;28;20535;-48
2023/11/12 03:25:32;;;;;;;3.20;2.63;;;10.10;83.50;;;;;;5066604;28;20884;-47
2023/11/12 03:28:00;;;;;;;3.73;1.90;;;10.10;83.50;;;;;;5062128;28;20470;-47
2023/11/12 03:30:28;;;;;;;4.10;2.20;;;10.10;83.50;;;;;;5063186;28;20473;-50
2023/11/12 03:32:57;;;;;;;1.97;1.43;;;10.10;83.50;;;;;;5056591;28;20551;-47
2023/11/12 03:35:25;;;;;;;3.77;2.23;;;10.10;83.50;;;;;;5059805;28;20438;-50
2023/11/12 03:37:53;;;;;;;2.80;2.00;;;10.10;83.50;;;;;;5057302;28;20487;-49
2023/11/12 03:40:21;;;;;;;2.40;1.50;;;10.10;83.50;;;;;;5062115;28;20527;-47
2023/11/12 03:42:49;;;;;;;2.37;2.00;;;10.10;83.50;;;;;;5065664;28;20451;-46
2023/11/12 03:45:17;;;;;;;2.63;1.90;;;10.10;83.50;;;;;;5058662;28;20528;-47
2023/11/12 03:47:45;;;;;;;2.03;1.70;;;10.00;83.40;;;;;;5057960;28;20475;-47
2023/11/12 03:50:15;;;;;;;2.97;1.80;;;10.00;83.40;;;;;;5061938;28;20477;-46
2023/11/12 03:52:43;;;;;;;2.20;1.53;;;10.00;83.80;;;;;;5064000;28;21032;-47
2023/11/12 03:55:11;;;;;;;3.40;2.33;;;10.00;83.40;;;;;;5066534;28;20460;-46
2023/11/12 03:57:39;;;;;;;2.23;1.83;;;10.00;83.40;;;;;;5068911;28;20470;-46
2023/11/12 04:00:08;;;;;;;3.97;1.80;;;10.00;83.40;;;;;;5062643;28;20510;-48
2023/11/12 04:02:41;;;;;;;2.27;1.93;;;10.00;83.40;;;;;;5064570;28;20443;-51
2023/11/12 04:05:09;;;;;;;3.20;2.17;;;10.00;83.40;;;;;;5068616;28;20431;-47
2023/11/12 04:07:39;;;;;;;2.30;1.70;;;10.00;83.40;;;;;;5065704;28;20548;-48
2023/11/12 04:10:07;;;;;;;2.23;1.60;;;10.00;83.40;;;;;;5064128;28;20450;-47
2023/11/12 04:12:36;;;;;;;2.00;1.60;;;10.00;83.40;;;;;;5064458;28;20811;-47
2023/11/12 04:15:05;;;;;;;2.30;2.10;;;10.00;83.40;;;;;;5065959;28;20511;-48
2023/11/12 04:17:33;;;;;;;2.13;1.50;;;10.00;83.40;;;;;;5065196;28;20482;-48
2023/11/12 04:20:02;;;;;;;2.30;1.50;;;10.00;83.40;;;;;;5069620;28;20778;-47
2023/11/12 04:22:30;;;;;;;2.03;1.83;;;10.00;83.40;;;;;;5067608;28;20484;-45
2023/11/12 04:25:00;;;;;;;1.57;1.37;;;10.00;83.40;;;;;;5067771;28;20426;-48
2023/11/12 04:27:28;;;;;;;2.53;2.33;;;10.00;83.40;;;;;;5065316;28;20450;-47
2023/11/12 04:29:56;;;;;;;4.20;2.10;;;10.00;83.50;;;;;;5067725;28;20435;-47
2023/11/12 04:32:24;;;;;;;1.90;1.60;;;10.00;83.40;;;;;;5066897;28;20442;-46
2023/11/12 04:34:52;;;;;;;3.00;1.53;;;10.00;83.50;;;;;;5063812;28;20453;-48
2023/11/12 04:37:20;;;;;;;3.63;2.47;;;10.00;83.40;;;;;;5067633;28;20593;-48
2023/11/12 04:39:48;;;;;;;2.37;1.77;;;10.00;83.40;;;;;;5060869;28;21104;-48
2023/11/12 04:42:17;;;;;;;3.47;1.53;;;10.00;83.40;;;;;;5063049;28;20791;-47
2023/11/12 04:44:45;;;;;;;2.93;2.20;;;10.00;83.40;;;;;;5062428;28;21013;-46
2023/11/12 04:47:13;;;;;;;2.00;1.63;;;10.00;83.40;;;;;;5068236;28;21019;-49
2023/11/12 04:49:41;;;;;;;1.57;1.07;;;10.00;83.50;;;;;;5065410;28;20465;-48
2023/11/12 04:52:10;;;;;;;1.87;1.50;;;10.00;83.40;;;;;;5068304;28;20423;-47
2023/11/12 04:54:38;;;;;;;2.60;1.90;;;10.00;83.40;;;;;;5064061;28;20479;-48
2023/11/12 04:57:06;;;;;;;3.30;1.63;;;10.00;83.40;;;;;;5066250;28;20997;-49
2023/11/12 04:59:35;;;;;;;3.53;2.13;;;10.00;83.40;;;;;;5065223;28;20470;-47
2023/11/12 05:02:04;;;;;;;3.80;2.33;;;10.00;83.40;;;;;;5065117;28;20443;-51
2023/11/12 05:04:32;;;;;;;1.80;1.40;;;10.00;83.40;;;;;;5067920;28;20470;-47
2023/11/12 05:07:00;;;;;;;3.00;2.20;;;10.00;83.40;;;;;;5065790;28;20461;-46
2023/11/12 05:09:28;;;;;;;1.80;1.33;;;9.90;84.30;;;;;;5060971;28;20505;-48
2023/11/12 05:11:56;;;;;;;2.13;1.37;;;10.00;83.40;;;;;;5063380;28;20466;-47
2023/11/12 05:14:24;;;;;;;2.57;2.23;;;10.00;83.50;;;;;;5064650;28;21003;-47
2023/11/12 05:16:54;;;;;;;3.30;2.40;;;9.90;84.30;;;;;;5065275;28;20463;-49
2023/11/12 05:19:22;;;;;;;3.10;2.30;;;9.90;84.30;;;;;;5060353;28;20536;-46
2023/11/12 05:21:50;;;;;;;3.50;1.77;;;9.90;84.30;;;;;;5065697;28;20522;-48
2023/11/12 05:24:19;;;;;;;3.57;2.60;;;9.90;84.30;;;;;;5059926;28;20582;-46
2023/11/12 05:26:47;;;;;;;2.10;1.53;;;9.90;84.30;;;;;;5064595;28;20466;-46
2023/11/12 05:29:15;;;;;;;2.20;1.43;;;9.90;84.30;;;;;;5062965;28;20899;-48
2023/11/12 05:31:43;;;;;;;3.53;1.63;;;9.90;84.30;;;;;;5062448;28;21254;-47
2023/11/12 05:34:13;;;;;;;3.97;2.23;;;9.90;84.30;;;;;;5064795;28;20828;-48
2023/11/12 05:36:41;;;;;;;2.37;1.70;;;9.90;84.30;;;;;;5064386;28;20971;-49
2023/11/12 05:39:12;;;;;;;1.47;1.23;;;9.90;84.30;;;;;;5062559;28;20470;-47
2023/11/12 05:41:40;;;;;;;3.20;2.47;;;9.90;84.30;;;;;;5064757;28;20836;-46
2023/11/12 05:44:08;;;;;;;1.87;1.47;;;9.90;84.30;;;;;;5057585;28;20494;-47
2023/11/12 05:46:36;;;;;;;4.50;2.50;;;9.90;84.30;;;;;;5061678;28;20541;-49
2023/11/12 05:49:04;;;;;;;2.20;1.70;;;9.90;84.30;;;;;;5055824;28;20570;-47
2023/11/12 05:51:34;;;;;;;2.33;1.50;;;9.90;84.40;;;;;;5065156;28;20710;-47
2023/11/12 05:54:02;;;;;;;2.30;1.43;;;9.80;84.20;;;;;;5062328;28;20598;-46
2023/11/12 05:56:30;;;;;;;2.40;1.83;;;9.90;84.30;;;;;;5063933;28;20489;-46
2023/11/12 05:58:58;;;;;;;2.87;2.20;;;9.90;84.30;;;;;;5062451;28;20503;-48
2023/11/12 06:01:26;;;;;;;2.37;1.87;;;9.80;84.20;;;;;;5065191;28;20428;-47
2023/11/12 06:03:55;;;;;;;3.27;2.13;;;9.80;84.20;;;;;;5060502;28;20459;-47
2023/11/12 06:06:23;;;;;;;4.40;2.37;;;9.80;84.20;;;;;;5063642;28;20459;-47
2023/11/12 06:08:53;;;;;;;3.20;1.97;;;9.80;84.20;;;;;;5061828;28;20848;-47
2023/11/12 06:11:22;;;;;;;2.87;2.00;;;9.80;84.20;;;;;;5066865;28;20455;-48
2023/11/12 06:13:50;;;;;;;3.83;1.83;;;9.80;84.20;;;;;;5065307;28;21110;-49
2023/11/12 06:16:19;;;;;;;2.90;1.80;;;9.80;84.20;;;;;;5070537;28;20482;-46
2023/11/12 06:18:48;;;;;;;2.40;2.20;;;9.80;85.50;;;;;;5062964;28;20501;-47
2023/11/12 06:21:17;;;;;;;1.77;1.37;;;9.80;84.20;;;;;;5069017;28;20426;-46
2023/11/12 06:23:45;;;;;;;2.30;1.63;;;9.80;84.20;;;;;;5065802;28;21067;-48
2023/11/12 06:26:15;;;;;;;1.93;1.57;;;9.80;84.20;;;;;;5066175;28;20438;-47
2023/11/12 06:28:44;;;;;;;3.77;1.90;;;9.80;84.20;;;;;;5068428;28;20524;-50
2023/11/12 06:31:13;;;;;;;2.67;1.80;;;9.80;84.20;;;;;;5067903;28;20518;-46
2023/11/12 06:33:42;;;;;;;2.43;1.57;;;9.80;84.20;;;;;;5063791;28;20478;-45
2023/11/12 06:36:13;;;;;;;2.97;2.30;;;9.80;84.20;;;;;;5064320;28;20989;-47
2023/11/12 06:38:42;;;;;;;1.87;1.63;;;9.80;84.20;;;;;;5064916;28;21045;-47
2023/11/12 06:41:10;;;;;;;3.37;1.70;;;9.80;84.20;;;;;;5065257;28;20508;-47
2023/11/12 06:43:39;;;;;;;2.20;1.30;;;9.80;84.20;;;;;;5065456;28;20523;-45
2023/11/12 06:46:08;;;;;;;1.77;1.30;;;9.80;84.20;;;;;;5068134;28;20500;-46
2023/11/12 06:48:36;;;;;;;2.17;1.83;;;9.80;84.20;;;;;;5064352;28;20470;-48
2023/11/12 06:51:04;;;;;;;2.90;1.83;;;9.80;84.20;;;;;;5066302;28;20423;-46
2023/11/12 06:53:33;;;;;;;2.87;2.07;;;9.80;84.20;;;;;;5070455;28;20809;-48
2023/11/12 06:56:04;;;;;;;2.97;2.10;;;9.80;84.20;;;;;;5064877;28;20459;-46
2023/11/12 06:58:33;;;;;;;2.27;2.03;;;9.80;84.20;;;;;;5066799;28;20561;-47
2023/11/12 07:01:03;;;;;;;2.73;1.80;;;9.80;84.20;;;;;;5069567;28;20639;-45
2023/11/12 07:03:31;;;;;;;5.30;2.23;;;9.80;84.20;;;;;;5068009;28;20546;-46
2023/11/12 07:05:59;;;;;;;2.67;1.33;;;9.80;84.20;;;;;;5065536;28;20469;-46
2023/11/12 07:08:28;;;;;;;3.33;1.90;;;9.80;84.20;;;;;;5066464;28;20478;-46
2023/11/12 07:10:58;;;;;;;4.07;2.00;;;9.70;84.20;;;;;;5063694;28;20460;-45
2023/11/12 07:13:26;;;;;;;2.30;1.80;;;9.70;84.10;;;;;;5066967;28;20458;-48
2023/11/12 07:15:54;;;;;;;4.10;2.47;;;9.80;84.20;;;;;;5063792;28;20459;-49
2023/11/12 07:18:27;;;;;;;1.90;1.47;;;9.70;84.20;;;;;;5065440;28;20473;-47
2023/11/12 07:20:59;;;;;;;2.10;1.30;;;9.70;84.10;;;;;;5063475;28;20415;-47
2023/11/12 07:23:30;;;;;;;2.77;1.97;;;9.80;84.20;;;;;;5060298;28;20466;-45
2023/11/12 07:25:58;;;;;;;3.57;2.07;;;9.70;84.10;;;;;;5062867;28;20980;-46
2023/11/12 07:28:27;;;;;;;5.10;1.90;;;9.70;84.20;;;;;;5067339;28;20519;-46
2023/11/12 07:30:55;;;;;;;3.13;1.90;;;9.70;84.10;;;;;;5059361;28;20447;-47
2023/11/12 07:33:23;;;;;;;2.57;1.47;;;9.70;84.20;;;;;;5063083;28;20998;-46
2023/11/12 07:35:52;;;;;;;2.47;1.90;;;9.70;84.20;;;;;;5067275;28;20463;-47
2023/11/12 07:38:22;;;;;;;3.03;2.07;;;9.70;84.20;;;;;;5067565;28;20485;-47
2023/11/12 07:40:50;;;;;;;2.47;1.80;;;9.70;84.20;;;;;;5061305;28;20446;-48
2023/11/12 07:43:18;;;;;;;1.90;1.60;;;9.70;84.20;;;;;;5064648;28;20462;-47
2023/11/12 07:45:46;;;;;;;2.00;1.40;;;9.70;84.10;;;;;;5067102;28;20448;-45
2023/11/12 07:48:14;;;;;;;3.70;2.10;;;9.70;84.10;;;;;;5066880;28;20493;-45
2023/11/12 07:50:42;;;;;;;2.43;1.50;;;9.70;84.20;;;;;;5064156;28;20800;-49
2023/11/12 07:53:12;;;;;;;4.37;2.63;;;9.70;84.10;;;;;;5065471;28;20567;-49
2023/11/12 07:55:42;;;;;;;2.60;1.60;;;9.70;84.20;;;;;;5065555;28;20442;-47
2023/11/12 07:58:10;;;;;;;3.60;2.27;;;9.70;84.20;;;;;;5062533;28;20467;-48
2023/11/12 08:00:38;;;;;;;2.37;1.40;;;9.70;84.20;;;;;;5062579;28;20457;-46
2023/11/12 08:03:07;;;;;;;4.30;1.80;;;9.70;84.20;;;;;;5061821;28;20555;-45
2023/11/12 08:05:35;;;;;;;1.70;1.60;;;9.70;84.20;;;;;;5062524;28;20959;-47
2023/11/12 08:08:03;;;;;;;3.90;2.07;;;9.70;84.20;;;;;;5060434;28;20464;-45
2023/11/12 08:10:33;;;;;;;2.50;1.53;;;9.70;84.20;;;;;;5065502;28;20443;-48
2023/11/12 08:13:03;;;;;;;2.20;1.53;;;9.70;84.20;;;;;;5063190;28;20466;-47
2023/11/12 08:15:31;;;;;;;2.07;1.50;;;9.70;84.10;;;;;;5065571;28;20492;-45
2023/11/12 08:17:59;;;;;;;2.47;1.47;;;9.70;84.20;;;;;;5061018;28;20475;-48
2023/11/12 08:20:28;;;;;;;2.60;1.80;;;9.70;84.20;;;;;;5062223;28;21050;-45
2023/11/12 08:22:56;;;;;;;2.47;1.70;;;9.70;84.10;;;;;;5056727;28;20457;-47
2023/11/12 08:25:24;;;;;;;1.97;1.50;;;9.70;84.20;;;;;;5064893;28;20508;-45
2023/11/12 08:27:54;;;;;;;2.60;1.97;;;9.70;84.20;;;;;;5061931;28;20454;-47
2023/11/12 08:30:23;;;;;;;3.30;2.00;;;9.70;84.20;;;;;;5063350;28;20426;-46
2023/11/12 08:32:52;;;;;;;2.50;1.77;;;9.70;84.20;;;;;;5059330;28;20493;-47
2023/11/12 08:35:20;;;;;;;4.20;2.27;;;9.70;84.10;;;;;;5057075;28;20538;-47
2023/11/12 08:37:48;;;;;;;3.20;1.97;;;9.60;84.10;;;;;;5063861;28;20481;-47
2023/11/12 08:40:18;;;;;;;2.97;1.80;;;9.70;84.10;;;;;;5059706;28;20474;-46
2023/11/12 08:42:47;;;;;;;2.40;1.80;;;9.70;84.20;;;;;;5060613;28;20459;-47
2023/11/12 08:45:17;;;;;;;2.93;1.50;;;9.70;84.20;;;;;;5067262;28;20542;-45
2023/11/12 08:47:45;;;;;;;2.60;1.70;;;9.70;84.10;;;;;;5065567;28;20467;-48
2023/11/12 08:50:14;;;;;;;1.90;1.37;;;9.70;84.20;;;;;;5068997;28;20428;-45
2023/11/12 08:52:42;;;;;;;3.00;1.80;;;9.70;84.10;;;;;;5062525;28;20524;-46
2023/11/12 08:55:11;;;;;;;2.57;1.50;;;9.60;84.00;;;;;;5065494;28;20507;-46
2023/11/12 08:57:41;;;;;;;2.27;1.43;;;9.70;84.20;;;;;;5064652;28;20443;-46
2023/11/12 09:00:11;;;;;;;4.00;1.80;;;9.70;84.10;;;;;;5066677;28;20516;-46
2023/11/12 09:02:43;;;;;;;3.77;2.10;;;9.70;84.20;;;;;;5063660;28;20443;-45
2023/11/12 09:05:11;;;;;;;3.50;2.23;;;9.70;84.20;;;;;;5064535;28;20443;-46
2023/11/12 09:07:41;;;;;;;2.17;1.50;;;9.70;84.20;;;;;;5066976;28;20450;-47
2023/11/12 09:10:12;;;;;;;1.83;1.20;;;9.70;84.10;;;;;;5064410;28;20474;-47
2023/11/12 09:12:48;;;;;;;2.90;1.83;;;9.60;84.00;;;;;;5064655;28;20465;-46
2023/11/12 09:15:17;;;;;;;2.47;1.83;;;9.60;84.20;;;;;;5062760;28;20453;-48
2023/11/12 09:17:47;;;;;;;2.80;1.33;;;9.70;84.20;;;;;;5064840;28;20459;-46
2023/11/12 09:20:16;;;;;;;2.80;1.53;;;9.60;84.60;;;;;;5063850;28;20555;-46
2023/11/12 09:22:45;;;;;;;2.37;1.40;;;9.70;84.50;;;;;;5062548;28;20558;-46
2023/11/12 09:25:13;;;;;;;2.00;1.57;;;9.70;84.20;;;;;;5060974;28;20437;-47
2023/11/12 09:27:41;;;;;;;5.17;2.30;;;9.60;84.20;;;;;;5062272;28;20459;-45
2023/11/12 09:30:10;;;;;;;2.07;1.43;;;9.60;84.60;;;;;;5064176;28;20432;-48
2023/11/12 09:32:39;;;;;;;2.10;1.27;;;9.60;84.30;;;;;;5058127;28;20453;-50
2023/11/12 09:35:12;;;;;;;4.23;1.40;;;9.60;84.30;;;;;;5064964;28;20463;-47
2023/11/12 09:37:40;;;;;;;2.17;1.77;;;9.60;84.50;;;;;;5064021;28;20473;-48
2023/11/12 09:40:10;;;;;;;2.13;1.50;;;9.60;84.50;;;;;;5062317;28;20470;-48
2023/11/12 09:42:41;;;;;;;5.83;1.40;;;9.70;84.30;;;;;;5064058;28;20531;-49
2023/11/12 09:45:15;;;;;;;2.73;1.67;;;9.70;84.50;;;;;;5063943;28;20495;-47
2023/11/12 09:47:51;;;;;;;5.00;1.53;;;9.70;84.90;;;;;;5066966;28;20479;-48
2023/11/12 09:50:26;;;;;;;1.90;1.57;;;9.60;85.80;;;;;;5058607;28;20530;-48
2023/11/12 09:53:03;;;;;;;2.87;1.97;;;9.70;84.60;;;;;;5061081;28;20492;-46
2023/11/12 09:55:32;;;;;;;2.97;2.10;;;9.70;84.30;;;;;;5060031;28;20477;-47
2023/11/12 09:58:01;;;;;;;4.70;2.07;;;9.60;84.70;;;;;;5065470;28;21003;-49
2023/11/12 10:00:34;;;;;;;2.27;1.33;;;9.60;84.50;;;;;;5066744;28;20474;-48
2023/11/12 10:03:07;;;;;;;4.40;1.67;;;9.60;84.40;;;;;;5066997;28;21207;-47
2023/11/12 10:05:38;;;;;;;3.17;1.80;;;9.60;84.20;;;;;;5064292;28;20447;-49
2023/11/12 10:08:06;;;;;;;1.93;1.40;;;9.60;84.70;;;;;;5065440;28;20473;-45
2023/11/12 10:10:36;;;;;;;4.73;1.90;;;9.60;84.50;;;;;;5061846;28;20878;-46
2023/11/12 10:13:05;;;;;;;4.70;1.80;;;9.60;84.20;;;;;;5063066;28;20424;-48
2023/11/12 10:15:34;;;;;;;2.17;1.30;;;9.60;84.90;;;;;;5060885;28;20297;-48
2023/11/12 10:18:06;;;;;;;2.20;1.53;;;9.70;84.80;;;;;;5057843;28;20569;-47
2023/11/12 10:20:49;;;;;;;2.03;1.30;;;9.60;84.30;;;;;;5057584;28;20691;-48
2023/11/12 10:23:23;;;;;;;2.50;1.67;;;9.70;84.70;;;;;;5059496;28;20463;-49
2023/11/12 10:25:55;;;;;;;3.57;2.07;;;9.60;84.70;;;;;;5059085;28;20485;-47
2023/11/12 10:28:33;;;;;;;2.60;1.90;;;9.60;84.80;;;;;;5061995;28;20485;-47
2023/11/12 10:31:01;;;;;;;2.20;1.80;;;9.70;85.10;;;;;;5063161;28;20518;-47
2023/11/12 10:33:31;;;;;;;2.17;1.50;;;9.70;85.30;;;;;;5061297;28;20475;-46
2023/11/12 10:36:08;;;;;;;1.73;1.37;;;9.60;84.80;;;;;;5065017;28;20475;-48
2023/11/12 10:38:49;;;;;;;2.27;1.40;;;9.60;85.10;;;;;;5040590;28;20462;-47
2023/11/12 10:41:18;;;;;;;3.00;1.63;;;9.70;85.40;;;;;;5062964;28;20896;-49
2023/11/12 10:43:59;;;;;;;2.53;1.70;;;9.70;85.00;;;;;;5062191;28;20456;-50
2023/11/12 10:46:29;;;;;;;4.30;1.93;;;9.60;84.80;;;;;;5061844;28;21065;-48
2023/11/12 10:49:04;;;;;;;3.57;1.97;;;9.60;85.20;;;;;;5056313;28;20711;-49
2023/11/12 10:51:36;;;;;;;3.13;1.40;;;9.70;85.30;;;;;;5057948;28;20801;-47
2023/11/12 10:54:06;;;;;;;1.87;1.60;;;9.60;84.80;;;;;;5061235;28;21387;-48
2023/11/12 10:56:35;;;;;;;2.20;1.37;;;9.70;85.10;;;;;;5061081;28;20537;-47
2023/11/12 10:59:04;;;;;;;2.43;1.90;;;9.60;85.20;;;;;;5059352;28;20485;-46
2023/11/12 11:01:34;;;;;;;2.17;1.57;;;9.60;85.20;;;;;;5066106;28;20498;-44
2023/11/12 11:04:05;;;;;;;4.03;2.23;;;9.70;85.00;;;;;;5060418;28;20469;-48
2023/11/12 11:06:41;;;;;;;5.50;1.93;;;9.70;87.70;;;;;;5062641;28;20469;-47
2023/11/12 11:09:10;;;;;;;4.00;2.07;;;9.80;88.00;;;;;;5060796;28;21021;-47
2023/11/12 11:11:38;;;;;;;5.13;2.00;;;9.80;86.80;;;;;;5063600;28;20436;-48
2023/11/12 11:14:27;;;;;;;3.83;1.73;;;9.80;86.40;;;;;;5065048;28;20462;-47
2023/11/12 11:16:58;;;;;;;7.80;2.63;;;9.70;86.30;;;;;;5062627;28;20474;-46
2023/11/12 11:19:56;;;;;;;4.80;2.33;;;9.70;86.30;;;;;;5054826;28;20502;-47
2023/11/12 11:22:28;;;;;;;3.70;1.87;;;9.70;86.50;;;;;;5062025;28;20442;-48
2023/11/12 11:25:01;;;;;;;3.00;2.30;;;9.80;86.50;;;;;;5062635;28;20834;-44
2023/11/12 11:27:31;;;;;;;3.37;1.63;;;9.70;85.90;;;;;;5061419;28;20462;-45
2023/11/12 11:30:12;;;;;;;2.50;1.63;;;9.80;85.90;;;;;;5058519;28;20443;-46
2023/11/12 11:32:57;;;;;;;4.20;1.93;;;9.80;86.20;;;;;;5063523;28;20442;-50
2023/11/12 11:35:27;;;;;;;4.93;1.30;;;9.80;85.90;;;;;;5063445;28;20446;-45
2023/11/12 11:38:12;;;;;;;2.40;1.60;;;9.80;85.70;;;;;;5059684;28;20469;-47
2023/11/12 11:40:55;;;;;;;4.93;2.20;;;9.80;85.60;;;;;;5059278;28;21028;-47
2023/11/12 11:43:32;;;;;;;2.00;1.50;;;9.80;85.70;;;;;;5061357;28;20454;-45
2023/11/12 11:46:10;;;;;;;2.60;1.57;;;9.80;85.50;;;;;;5056564;28;20528;-45
2023/11/12 11:49:19;;;;;;;6.00;1.90;;;9.80;85.20;;;;;;5051854;28;20557;-47
2023/11/12 11:51:48;;;;;;;2.50;1.57;;;9.80;85.10;;;;;;5052414;28;20441;-46
2023/11/12 11:54:20;;;;;;;4.40;1.70;;;9.90;85.50;;;;;;5057555;28;20482;-47
2023/11/12 11:56:51;;;;;;;2.70;2.37;;;9.90;85.70;;;;;;5052515;28;20659;-49
2023/11/12 11:59:21;;;;;;;5.30;3.10;;;9.90;85.90;;;;;;5069308;28;20486;-48
2023/11/12 12:01:50;;;;;;;6.80;2.20;;;9.90;85.80;;;;;;5065162;28;20496;-47
2023/11/12 12:04:18;;;;;;;4.20;2.50;;;9.90;85.70;;;;;;5065522;28;20506;-47
2023/11/12 12:06:49;;;;;;;5.90;3.43;;;9.90;85.60;;;;;;5064435;28;20470;-45
2023/11/12 12:09:20;;;;;;;4.40;2.27;;;9.90;85.70;;;;;;5060481;28;20478;-47
2023/11/12 12:11:51;;;;;;;3.80;1.97;;;9.90;85.50;;;;;;5063687;28;20448;-47
2023/11/12 12:14:21;;;;;;;5.90;2.20;;;9.90;85.50;;;;;;5064558;28;20552;-47
2023/11/12 12:16:49;;;;;;;5.03;2.13;;;9.90;85.40;;;;;;5061994;28;20474;-46
2023/11/12 12:19:19;;;;;;;3.63;2.13;;;9.90;85.30;;;;;;5065819;28;20475;-47
2023/11/12 12:21:49;;;;;;;2.27;2.00;;;9.90;85.20;;;;;;5061703;28;20492;-48
2023/11/12 12:24:24;;;;;;;2.47;2.07;;;9.90;85.10;;;;;;5060473;28;20991;-48
2023/11/12 12:26:56;;;;;;;2.50;1.97;;;9.90;85.50;;;;;;5055080;28;20465;-48
2023/11/12 12:29:25;;;;;;;5.83;1.90;;;10.00;84.40;;;;;;5057386;28;20544;-48
2023/11/12 12:31:55;;;;;;;3.10;2.17;;;10.00;84.30;;;;;;5052064;28;20539;-47
2023/11/12 12:34:24;;;;;;;4.40;2.20;;;10.10;84.30;;;;;;5052856;28;20531;-47
2023/11/12 12:36:59;;;;;;;3.23;1.80;;;10.10;83.90;;;;;;5059127;28;20462;-50
2023/11/12 12:39:28;;;;;;;4.73;2.10;;;10.20;83.60;;;;;;5062397;28;20498;-46
2023/11/12 12:42:03;;;;;;;3.53;2.10;;;10.20;83.60;;;;;;5058528;28;20471;-47
2023/11/12 12:44:33;;;;;;;3.57;2.30;;;10.30;83.70;;;;;;5055634;28;20474;-48
2023/11/12 12:47:01;;;;;;;3.00;2.30;;;10.30;83.70;;;;;;5063870;28;20456;-44
2023/11/12 12:49:31;;;;;;;2.43;1.70;;;10.30;83.60;;;;;;5062293;28;20476;-50
2023/11/12 12:52:00;;;;;;;1.93;1.73;;;10.40;83.80;;;;;;5058978;28;20469;-46
2023/11/12 12:54:30;;;;;;;4.10;2.17;;;10.40;83.70;;;;;;5062571;28;20502;-47
2023/11/12 12:57:03;;;;;;;2.77;2.37;;;10.40;83.40;;;;;;5063082;28;20482;-46
2023/11/12 12:59:37;;;;;;;14.03;3.40;;;10.40;83.50;;;;;;5054846;28;20471;-45
2023/11/12 13:02:05;;;;;;;3.47;1.70;;;10.50;84.90;;;;;;5056907;28;20460;-48
2023/11/12 13:04:34;;;;;;;5.30;2.27;;;10.50;83.90;;;;;;5056968;28;20476;-45
2023/11/12 13:07:06;;;;;;;2.63;1.60;;;10.50;83.80;;;;;;5062911;28;20947;-48